Portada
METAR-TAF:

METAR-TAF

Aeropuertos :

Bilbao, España

Aeropuerto de Bilbao

latitud: 43-18N, longitud: 002-56W, altitud: 42 m

Observación

El informe se hizo hace 42 minutos, a las 07:30 UTC
Viento 4 kt del este-sureste
Temperatura 12°C
Humedad 76%
Presión 1025 hPa
Visibilidad 10 km o más
Escasas nubes a una altura de 6000 ft

METAR: LEBB 280730Z 11004KT 9999 FEW060 12/08 Q1025 NOSIG

Hora: 10:12 (08:12 UTC)

Pronóstico

El informe se hizo hace 3 horas y 12 minutos, a las 05:00 UTC
Pronóstico válido del 28 a las 06 UTC al 29 a las 06 UTC
Viento 7 kt del sur-sureste
Visibilidad 10 km o más
Escasas nubes a una altura de 5000 ft
Temporalmente
del 28 a las 12 UTC al 28 a las 18 UTC
Viento 10 kt del noroeste

TAF: LEBB 280500Z 2806/2906 16007KT 9999 FEW050 TX21/2815Z TN08/2906Z TEMPO 2812/2818 32010KT

Observaciones y pronósticos meteorológicos de más de 4000 aeropuertos (mensajes METAR y TAF).

Los puntos amarillos y rojos representan las estaciones disponibles.

Ponga el ratón en el punto deseado para ver el nombre de la estación.

Haga clic para ver las observaciones y los pronósticos meteorológicos.

Para cambiar el mapa : haga clic en los botones verdes con una cruz de color negro para hacer un zoom, en el botón verde con un guión para alejar o en las flechas verdes para mapas adyacentes.


METAR-TAF: